createdAt,value
2023-03-23T15:58:34.636Z,16.72
2023-03-23T16:01:06.052Z,16.67
2023-03-23T16:03:57.994Z,16.63
2023-03-23T16:06:27.455Z,16.58
2023-03-23T16:08:56.043Z,16.56
2023-03-23T16:11:25.465Z,16.33
2023-03-23T16:13:51.889Z,16.41
2023-03-23T16:16:32.118Z,16.44
2023-03-23T16:18:58.522Z,16.47
2023-03-23T16:21:25.111Z,16.43
2023-03-23T16:23:51.979Z,16.45
2023-03-23T16:26:18.597Z,16.59
2023-03-23T16:28:45.530Z,16.59
2023-03-23T16:31:12.087Z,16.58
2023-03-23T16:33:38.522Z,16.53
2023-03-23T16:36:05.317Z,16.48
2023-03-23T16:38:31.894Z,16.53
2023-03-23T16:40:58.404Z,16.41
2023-03-23T16:43:24.866Z,16.39
2023-03-23T16:45:56.199Z,16.30
2023-03-23T16:48:23.030Z,16.24
2023-03-23T16:50:49.622Z,16.26
2023-03-23T16:53:16.247Z,16.22
2023-03-23T16:55:47.686Z,16.22
2023-03-23T16:58:17.482Z,16.17
2023-03-23T17:00:47.753Z,16.22
2023-03-23T17:03:16.230Z,16.16
2023-03-23T17:05:43.192Z,16.07
2023-03-23T17:08:09.975Z,16.09
2023-03-23T17:10:39.290Z,16.06
2023-03-23T17:13:06.255Z,16.00
2023-03-23T17:15:32.755Z,16.01
2023-03-23T17:17:59.258Z,15.97
2023-03-23T17:20:25.728Z,15.95
2023-03-23T17:22:52.174Z,15.87
2023-03-23T17:25:18.802Z,15.86
2023-03-23T17:27:45.470Z,15.85
2023-03-23T17:30:12.306Z,15.85
2023-03-23T17:32:39.129Z,15.82
2023-03-23T17:35:06.584Z,15.86
2023-03-23T17:37:33.392Z,15.81
2023-03-23T17:40:00.213Z,15.73
2023-03-23T17:42:27.040Z,15.71
2023-03-23T17:44:53.598Z,15.73
2023-03-23T17:47:20.093Z,15.76
2023-03-23T17:49:46.553Z,15.67
2023-03-23T17:52:13.030Z,15.57
2023-03-23T17:54:39.438Z,15.48
2023-03-23T17:57:06.176Z,15.46
2023-03-23T17:59:32.895Z,15.41
2023-03-23T18:01:59.452Z,15.37
2023-03-23T18:04:27.096Z,15.34
2023-03-23T18:06:57.723Z,15.34
2023-03-23T18:09:25.399Z,15.32
2023-03-23T18:11:53.126Z,15.34
2023-03-23T18:14:20.769Z,15.36
2023-03-23T18:16:47.747Z,15.31
2023-03-23T18:19:14.619Z,15.32
2023-03-23T18:21:41.727Z,15.32
2023-03-23T18:24:08.988Z,15.36
2023-03-23T18:26:35.735Z,15.32
2023-03-23T18:29:02.300Z,15.31
2023-03-23T18:31:29.174Z,15.29
2023-03-23T18:33:56.186Z,15.26
2023-03-23T18:36:26.084Z,15.25
2023-03-23T18:38:56.233Z,15.27
2023-03-23T18:41:23.552Z,15.29
2023-03-23T18:43:50.187Z,15.30
2023-03-23T18:46:16.673Z,15.27
2023-03-23T18:48:43.821Z,15.22
2023-03-23T18:51:11.304Z,15.19
2023-03-23T18:53:37.816Z,15.21
2023-03-23T18:56:16.059Z,15.17
2023-03-23T18:58:43.343Z,15.15
2023-03-23T19:01:13.001Z,15.14
2023-03-23T19:03:40.368Z,15.13
2023-03-23T19:06:11.591Z,15.09
2023-03-23T19:08:38.001Z,15.08
2023-03-23T19:11:05.081Z,15.08
2023-03-23T19:13:37.535Z,15.10
2023-03-23T19:16:05.725Z,15.05
2023-03-23T19:18:32.569Z,15.05
2023-03-23T19:23:28.973Z,15.03
2023-03-23T19:25:55.465Z,15.02
2023-03-23T19:29:03.810Z,14.99
2023-03-23T19:31:08.822Z,14.93
2023-03-23T19:33:35.528Z,14.92
2023-03-23T19:36:10.944Z,14.91
2023-03-23T19:38:39.953Z,14.90
2023-03-23T19:41:06.807Z,14.88
2023-03-23T19:43:33.802Z,14.81
2023-03-23T19:46:00.669Z,14.75
2023-03-23T19:48:27.157Z,14.71
2023-03-23T19:50:53.742Z,14.70
2023-03-23T19:53:20.560Z,14.67
2023-03-23T19:55:47.463Z,14.61
2023-03-23T19:58:14.487Z,14.58
2023-03-23T20:00:41.202Z,14.56
2023-03-23T20:03:08.766Z,14.54
2023-03-23T20:05:35.908Z,14.50
2023-03-23T20:08:04.491Z,14.48
2023-03-23T20:10:34.536Z,14.45
2023-03-23T20:13:02.136Z,14.44
2023-03-23T20:15:30.783Z,14.39
2023-03-23T20:17:58.423Z,14.37
2023-03-23T20:20:25.774Z,14.37
2023-03-23T20:22:54.528Z,14.36
2023-03-23T20:25:23.058Z,14.36
2023-03-23T20:27:49.456Z,14.36
2023-03-23T20:30:16.958Z,14.31
2023-03-23T20:32:46.358Z,14.29
2023-03-23T20:35:14.578Z,14.32
2023-03-23T20:37:41.151Z,14.33
2023-03-23T20:40:11.378Z,14.32
2023-03-23T20:42:38.591Z,14.32
2023-03-23T20:45:06.814Z,14.28
2023-03-23T20:47:33.317Z,14.24
2023-03-23T20:50:00.170Z,14.25
2023-03-23T20:52:26.626Z,14.24
2023-03-23T20:54:54.906Z,14.24
2023-03-23T20:57:22.443Z,14.20
2023-03-23T20:59:53.273Z,14.17
2023-03-23T21:02:20.309Z,14.16
2023-03-23T21:04:48.795Z,14.17
2023-03-23T21:07:16.000Z,14.20
2023-03-23T21:09:42.991Z,14.20
2023-03-23T21:12:10.218Z,14.21
2023-03-23T21:14:38.908Z,14.23
2023-03-23T21:17:06.519Z,14.26
2023-03-23T21:19:33.768Z,14.27
2023-03-23T21:22:00.353Z,14.29
2023-03-23T21:24:29.009Z,14.33
2023-03-23T21:26:57.572Z,14.36
2023-03-23T21:29:24.293Z,14.37
2023-03-23T21:32:01.139Z,14.37
2023-03-23T21:34:34.312Z,14.38
2023-03-23T21:37:00.703Z,14.39
2023-03-23T21:39:28.141Z,14.43
2023-03-23T21:41:54.827Z,14.44
2023-03-23T21:44:21.602Z,14.47
2023-03-23T21:46:48.007Z,14.50
2023-03-23T21:49:14.615Z,14.53
2023-03-23T21:51:42.841Z,14.56
2023-03-23T21:54:10.874Z,14.56
2023-03-23T21:56:37.916Z,14.58
2023-03-23T21:59:07.355Z,14.61
2023-03-23T22:01:36.793Z,14.60
2023-03-23T22:04:03.977Z,14.66
2023-03-23T22:06:31.344Z,14.70
2023-03-23T22:08:58.143Z,14.72
2023-03-23T22:11:28.156Z,14.77
2023-03-23T22:13:56.483Z,14.78
2023-03-23T22:16:24.145Z,14.79
2023-03-23T22:18:52.299Z,14.79
2023-03-23T22:21:21.877Z,14.79
2023-03-23T22:23:49.229Z,14.81
2023-03-23T22:26:16.504Z,14.79
2023-03-23T22:28:45.733Z,14.81
2023-03-23T22:31:17.395Z,14.79
2023-03-23T22:33:45.092Z,14.78
2023-03-23T22:36:11.969Z,14.80
2023-03-23T22:38:41.241Z,14.82
2023-03-23T22:41:09.339Z,14.84
2023-03-23T22:43:37.204Z,14.85
2023-03-23T22:46:04.760Z,14.85
2023-03-23T22:48:31.573Z,14.86
2023-03-23T22:50:58.516Z,14.83
2023-03-23T22:53:25.479Z,14.85
2023-03-23T22:55:55.495Z,14.87
2023-03-23T22:58:22.512Z,14.86
2023-03-23T23:00:51.530Z,14.85
2023-03-23T23:03:18.073Z,14.84
2023-03-23T23:05:46.726Z,14.81
2023-03-23T23:08:15.198Z,14.81
2023-03-23T23:10:46.348Z,14.83
2023-03-23T23:13:13.506Z,14.80
2023-03-23T23:15:42.679Z,14.82
2023-03-23T23:18:09.374Z,14.78
2023-03-23T23:20:36.937Z,14.78
2023-03-23T23:23:04.266Z,14.75
2023-03-23T23:25:31.761Z,14.68
2023-03-23T23:27:59.515Z,14.65
2023-03-23T23:30:27.129Z,14.61
2023-03-23T23:32:54.321Z,14.60
2023-03-23T23:35:21.450Z,14.55
2023-03-23T23:37:48.733Z,14.54
2023-03-23T23:40:16.653Z,14.53
2023-03-23T23:42:44.517Z,14.47
2023-03-23T23:45:12.485Z,14.51
2023-03-23T23:47:39.239Z,14.50
2023-03-23T23:50:08.528Z,14.42
2023-03-23T23:52:36.174Z,14.40
2023-03-23T23:55:04.028Z,14.36
2023-03-23T23:57:30.559Z,14.36
2023-03-23T23:59:57.038Z,14.33
